sensor_id;sensor_type;location;lat;lon;timestamp;temperature;humidity
57660;DHT22;43485;45.680;15.702;2023-07-13T00:00:44;24.30;59.30
57660;DHT22;43485;45.680;15.702;2023-07-13T00:03:10;24.40;59.30
57660;DHT22;43485;45.680;15.702;2023-07-13T00:05:39;24.40;59.30
57660;DHT22;43485;45.680;15.702;2023-07-13T00:08:07;24.40;59.30
57660;DHT22;43485;45.680;15.702;2023-07-13T00:10:34;24.30;59.50
57660;DHT22;43485;45.680;15.702;2023-07-13T00:13:05;24.30;60.00
57660;DHT22;43485;45.680;15.702;2023-07-13T00:15:31;24.30;59.90
57660;DHT22;43485;45.680;15.702;2023-07-13T00:17:57;24.30;59.90
57660;DHT22;43485;45.680;15.702;2023-07-13T00:20:24;24.20;60.00
57660;DHT22;43485;45.680;15.702;2023-07-13T00:22:52;24.20;60.00
57660;DHT22;43485;45.680;15.702;2023-07-13T00:25:20;24.20;60.20
57660;DHT22;43485;45.680;15.702;2023-07-13T00:27:47;24.10;60.10
57660;DHT22;43485;45.680;15.702;2023-07-13T00:30:14;24.10;59.60
57660;DHT22;43485;45.680;15.702;2023-07-13T00:32:41;24.10;60.20
57660;DHT22;43485;45.680;15.702;2023-07-13T00:35:07;24.10;60.50
57660;DHT22;43485;45.680;15.702;2023-07-13T00:37:34;24.10;60.30
57660;DHT22;43485;45.680;15.702;2023-07-13T00:40:03;24.10;60.80
57660;DHT22;43485;45.680;15.702;2023-07-13T00:42:31;24.10;60.90
57660;DHT22;43485;45.680;15.702;2023-07-13T00:48:38;24.10;60.90
57660;DHT22;43485;45.680;15.702;2023-07-13T00:51:04;24.00;61.30
57660;DHT22;43485;45.680;15.702;2023-07-13T00:53:33;23.90;61.50
57660;DHT22;43485;45.680;15.702;2023-07-13T00:55:59;23.90;61.50
57660;DHT22;43485;45.680;15.702;2023-07-13T00:58:27;23.90;61.50
57660;DHT22;43485;45.680;15.702;2023-07-13T01:00:54;23.90;61.40
57660;DHT22;43485;45.680;15.702;2023-07-13T01:03:20;23.90;61.50
57660;DHT22;43485;45.680;15.702;2023-07-13T01:05:48;23.90;61.60
57660;DHT22;43485;45.680;15.702;2023-07-13T01:08:15;23.90;61.70
57660;DHT22;43485;45.680;15.702;2023-07-13T01:13:35;24.00;61.40
57660;DHT22;43485;45.680;15.702;2023-07-13T01:16:05;24.00;61.70
57660;DHT22;43485;45.680;15.702;2023-07-13T01:18:41;23.90;61.70
57660;DHT22;43485;45.680;15.702;2023-07-13T01:21:07;23.90;62.10
57660;DHT22;43485;45.680;15.702;2023-07-13T01:23:33;23.90;62.30
57660;DHT22;43485;45.680;15.702;2023-07-13T01:26:00;23.80;62.60
57660;DHT22;43485;45.680;15.702;2023-07-13T01:28:27;23.80;62.70
57660;DHT22;43485;45.680;15.702;2023-07-13T01:30:55;23.70;63.30
57660;DHT22;43485;45.680;15.702;2023-07-13T01:33:23;23.60;63.10
57660;DHT22;43485;45.680;15.702;2023-07-13T01:35:49;23.70;63.10
57660;DHT22;43485;45.680;15.702;2023-07-13T01:38:17;23.70;62.90
57660;DHT22;43485;45.680;15.702;2023-07-13T01:40:44;23.70;62.90
57660;DHT22;43485;45.680;15.702;2023-07-13T01:43:10;23.70;63.10
57660;DHT22;43485;45.680;15.702;2023-07-13T01:45:37;23.60;62.70
57660;DHT22;43485;45.680;15.702;2023-07-13T01:48:03;23.60;63.10
57660;DHT22;43485;45.680;15.702;2023-07-13T01:50:32;23.60;62.50
57660;DHT22;43485;45.680;15.702;2023-07-13T01:52:59;23.60;63.30
57660;DHT22;43485;45.680;15.702;2023-07-13T01:55:25;23.60;62.80
57660;DHT22;43485;45.680;15.702;2023-07-13T01:57:51;23.60;63.40
57660;DHT22;43485;45.680;15.702;2023-07-13T02:00:17;23.50;63.50
57660;DHT22;43485;45.680;15.702;2023-07-13T02:02:43;23.50;63.60
57660;DHT22;43485;45.680;15.702;2023-07-13T02:05:11;23.50;63.80
57660;DHT22;43485;45.680;15.702;2023-07-13T02:07:38;23.50;63.70
57660;DHT22;43485;45.680;15.702;2023-07-13T02:10:06;23.40;63.70
57660;DHT22;43485;45.680;15.702;2023-07-13T02:12:34;23.40;63.90
57660;DHT22;43485;45.680;15.702;2023-07-13T02:15:00;23.40;63.90
57660;DHT22;43485;45.680;15.702;2023-07-13T02:17:27;23.40;63.50
57660;DHT22;43485;45.680;15.702;2023-07-13T02:19:53;23.40;64.60
57660;DHT22;43485;45.680;15.702;2023-07-13T02:22:20;23.40;64.60
57660;DHT22;43485;45.680;15.702;2023-07-13T02:24:46;23.40;64.30
57660;DHT22;43485;45.680;15.702;2023-07-13T02:27:12;23.40;64.30
57660;DHT22;43485;45.680;15.702;2023-07-13T02:29:38;23.40;64.30
57660;DHT22;43485;45.680;15.702;2023-07-13T02:32:05;23.40;64.30
57660;DHT22;43485;45.680;15.702;2023-07-13T02:34:32;23.50;64.20
57660;DHT22;43485;45.680;15.702;2023-07-13T02:36:58;23.40;64.70
57660;DHT22;43485;45.680;15.702;2023-07-13T02:39:24;23.40;64.60
57660;DHT22;43485;45.680;15.702;2023-07-13T02:41:50;23.50;64.30
57660;DHT22;43485;45.680;15.702;2023-07-13T02:44:15;23.40;64.40
57660;DHT22;43485;45.680;15.702;2023-07-13T02:46:42;23.40;64.20
57660;DHT22;43485;45.680;15.702;2023-07-13T02:49:08;23.40;64.30
57660;DHT22;43485;45.680;15.702;2023-07-13T02:51:34;23.40;64.40
57660;DHT22;43485;45.680;15.702;2023-07-13T02:54:04;23.40;64.50
57660;DHT22;43485;45.680;15.702;2023-07-13T02:56:31;23.40;64.50
57660;DHT22;43485;45.680;15.702;2023-07-13T02:58:58;23.40;64.50
57660;DHT22;43485;45.680;15.702;2023-07-13T03:01:24;23.50;64.70
57660;DHT22;43485;45.680;15.702;2023-07-13T03:03:52;23.40;64.50
57660;DHT22;43485;45.680;15.702;2023-07-13T03:06:19;23.40;64.50
57660;DHT22;43485;45.680;15.702;2023-07-13T03:08:47;23.40;64.20
57660;DHT22;43485;45.680;15.702;2023-07-13T03:14:00;23.50;64.70
57660;DHT22;43485;45.680;15.702;2023-07-13T03:16:26;23.40;64.60
57660;DHT22;43485;45.680;15.702;2023-07-13T03:18:52;23.40;64.80
57660;DHT22;43485;45.680;15.702;2023-07-13T03:21:18;23.30;64.80
57660;DHT22;43485;45.680;15.702;2023-07-13T03:23:44;23.30;65.50
57660;DHT22;43485;45.680;15.702;2023-07-13T03:26:15;23.30;65.90
57660;DHT22;43485;45.680;15.702;2023-07-13T03:28:44;23.30;66.10
57660;DHT22;43485;45.680;15.702;2023-07-13T03:31:33;23.40;66.60
57660;DHT22;43485;45.680;15.702;2023-07-13T03:34:00;23.50;66.50
57660;DHT22;43485;45.680;15.702;2023-07-13T03:36:28;23.50;67.00
57660;DHT22;43485;45.680;15.702;2023-07-13T03:38:58;23.60;67.20
57660;DHT22;43485;45.680;15.702;2023-07-13T03:41:26;23.60;67.00
57660;DHT22;43485;45.680;15.702;2023-07-13T03:43:52;23.60;66.80
57660;DHT22;43485;45.680;15.702;2023-07-13T03:46:18;23.70;66.80
57660;DHT22;43485;45.680;15.702;2023-07-13T03:48:46;23.70;66.20
57660;DHT22;43485;45.680;15.702;2023-07-13T03:51:14;23.70;66.80
57660;DHT22;43485;45.680;15.702;2023-07-13T03:53:44;23.70;66.60
57660;DHT22;43485;45.680;15.702;2023-07-13T03:56:11;23.70;66.40
57660;DHT22;43485;45.680;15.702;2023-07-13T03:58:41;23.70;66.00
57660;DHT22;43485;45.680;15.702;2023-07-13T04:01:10;23.60;65.70
57660;DHT22;43485;45.680;15.702;2023-07-13T04:03:37;23.60;65.50
57660;DHT22;43485;45.680;15.702;2023-07-13T04:06:05;23.60;65.30
57660;DHT22;43485;45.680;15.702;2023-07-13T04:08:35;23.50;64.70
57660;DHT22;43485;45.680;15.702;2023-07-13T04:11:03;23.50;64.50
57660;DHT22;43485;45.680;15.702;2023-07-13T04:13:30;23.50;64.30
57660;DHT22;43485;45.680;15.702;2023-07-13T04:15:56;23.50;63.50
57660;DHT22;43485;45.680;15.702;2023-07-13T04:18:22;23.50;63.80
57660;DHT22;43485;45.680;15.702;2023-07-13T04:20:49;23.40;63.60
57660;DHT22;43485;45.680;15.702;2023-07-13T04:23:17;23.40;63.20
57660;DHT22;43485;45.680;15.702;2023-07-13T04:25:45;23.30;63.20
57660;DHT22;43485;45.680;15.702;2023-07-13T04:28:11;23.30;62.90
57660;DHT22;43485;45.680;15.702;2023-07-13T04:30:37;23.30;62.90
57660;DHT22;43485;45.680;15.702;2023-07-13T04:33:03;23.40;62.80
57660;DHT22;43485;45.680;15.702;2023-07-13T04:35:30;23.40;62.50
57660;DHT22;43485;45.680;15.702;2023-07-13T04:37:57;23.40;61.80
57660;DHT22;43485;45.680;15.702;2023-07-13T04:40:23;23.50;62.40
57660;DHT22;43485;45.680;15.702;2023-07-13T04:42:49;23.50;62.40
57660;DHT22;43485;45.680;15.702;2023-07-13T04:45:15;23.60;62.30
57660;DHT22;43485;45.680;15.702;2023-07-13T04:47:42;23.60;62.00
57660;DHT22;43485;45.680;15.702;2023-07-13T04:50:08;23.60;61.90
57660;DHT22;43485;45.680;15.702;2023-07-13T04:52:36;23.70;61.30
57660;DHT22;43485;45.680;15.702;2023-07-13T04:55:03;23.70;61.10
57660;DHT22;43485;45.680;15.702;2023-07-13T04:57:30;23.70;61.00
57660;DHT22;43485;45.680;15.702;2023-07-13T04:59:55;23.80;61.40
57660;DHT22;43485;45.680;15.702;2023-07-13T05:02:21;23.90;61.30
57660;DHT22;43485;45.680;15.702;2023-07-13T05:04:48;24.00;60.80
57660;DHT22;43485;45.680;15.702;2023-07-13T05:07:14;24.00;60.60
57660;DHT22;43485;45.680;15.702;2023-07-13T05:09:40;24.10;60.70
57660;DHT22;43485;45.680;15.702;2023-07-13T05:12:08;24.20;60.50
57660;DHT22;43485;45.680;15.702;2023-07-13T05:14:35;24.30;60.10
57660;DHT22;43485;45.680;15.702;2023-07-13T05:17:01;24.30;59.80
57660;DHT22;43485;45.680;15.702;2023-07-13T05:19:27;24.40;59.50
57660;DHT22;43485;45.680;15.702;2023-07-13T05:21:53;24.50;59.10
57660;DHT22;43485;45.680;15.702;2023-07-13T05:24:19;24.50;58.90
57660;DHT22;43485;45.680;15.702;2023-07-13T05:26:46;24.50;58.70
57660;DHT22;43485;45.680;15.702;2023-07-13T05:29:12;24.70;58.10
57660;DHT22;43485;45.680;15.702;2023-07-13T05:31:38;24.70;57.70
57660;DHT22;43485;45.680;15.702;2023-07-13T05:34:04;24.80;57.30
57660;DHT22;43485;45.680;15.702;2023-07-13T05:36:31;24.90;57.30
57660;DHT22;43485;45.680;15.702;2023-07-13T05:38:57;25.00;57.10
57660;DHT22;43485;45.680;15.702;2023-07-13T05:41:23;25.00;57.00
57660;DHT22;43485;45.680;15.702;2023-07-13T05:43:49;25.10;56.90
57660;DHT22;43485;45.680;15.702;2023-07-13T05:46:15;25.20;56.80
57660;DHT22;43485;45.680;15.702;2023-07-13T05:48:42;25.30;56.70
57660;DHT22;43485;45.680;15.702;2023-07-13T05:51:08;25.30;56.40
57660;DHT22;43485;45.680;15.702;2023-07-13T05:53:34;25.50;56.30
57660;DHT22;43485;45.680;15.702;2023-07-13T05:56:01;25.50;56.30
57660;DHT22;43485;45.680;15.702;2023-07-13T05:58:27;25.60;56.20
57660;DHT22;43485;45.680;15.702;2023-07-13T06:01:14;25.70;56.30
57660;DHT22;43485;45.680;15.702;2023-07-13T06:03:40;25.80;56.10
57660;DHT22;43485;45.680;15.702;2023-07-13T06:06:08;25.80;55.60
57660;DHT22;43485;45.680;15.702;2023-07-13T06:08:36;25.90;56.20
57660;DHT22;43485;45.680;15.702;2023-07-13T06:11:22;25.90;56.60
57660;DHT22;43485;45.680;15.702;2023-07-13T06:13:50;26.00;56.90
57660;DHT22;43485;45.680;15.702;2023-07-13T06:16:16;26.00;56.30
57660;DHT22;43485;45.680;15.702;2023-07-13T06:18:43;26.00;56.10
57660;DHT22;43485;45.680;15.702;2023-07-13T06:21:13;26.10;56.10
57660;DHT22;43485;45.680;15.702;2023-07-13T06:23:40;26.20;56.30
57660;DHT22;43485;45.680;15.702;2023-07-13T06:26:07;26.40;55.80
57660;DHT22;43485;45.680;15.702;2023-07-13T06:28:34;26.50;55.30
57660;DHT22;43485;45.680;15.702;2023-07-13T06:31:01;26.60;55.00
57660;DHT22;43485;45.680;15.702;2023-07-13T06:33:28;26.70;54.90
57660;DHT22;43485;45.680;15.702;2023-07-13T06:35:54;26.80;54.30
57660;DHT22;43485;45.680;15.702;2023-07-13T06:38:21;26.90;53.30
57660;DHT22;43485;45.680;15.702;2023-07-13T06:40:47;27.00;53.10
57660;DHT22;43485;45.680;15.702;2023-07-13T06:43:13;27.00;52.00
57660;DHT22;43485;45.680;15.702;2023-07-13T06:45:58;27.10;51.60
57660;DHT22;43485;45.680;15.702;2023-07-13T06:48:25;27.10;50.90
57660;DHT22;43485;45.680;15.702;2023-07-13T06:50:51;27.10;50.10
57660;DHT22;43485;45.680;15.702;2023-07-13T06:53:19;27.20;50.60
57660;DHT22;43485;45.680;15.702;2023-07-13T06:55:46;27.20;49.70
57660;DHT22;43485;45.680;15.702;2023-07-13T06:58:14;27.20;48.90
57660;DHT22;43485;45.680;15.702;2023-07-13T07:00:41;27.30;49.20
57660;DHT22;43485;45.680;15.702;2023-07-13T07:03:07;27.40;48.60
57660;DHT22;43485;45.680;15.702;2023-07-13T07:05:34;27.60;48.80
57660;DHT22;43485;45.680;15.702;2023-07-13T07:08:00;27.80;48.70
57660;DHT22;43485;45.680;15.702;2023-07-13T07:10:28;27.90;47.80
57660;DHT22;43485;45.680;15.702;2023-07-13T07:12:55;28.00;48.20
57660;DHT22;43485;45.680;15.702;2023-07-13T07:15:21;28.20;47.80
57660;DHT22;43485;45.680;15.702;2023-07-13T07:17:47;28.40;47.40
57660;DHT22;43485;45.680;15.702;2023-07-13T07:20:13;28.50;47.10
57660;DHT22;43485;45.680;15.702;2023-07-13T07:22:39;28.70;46.90
57660;DHT22;43485;45.680;15.702;2023-07-13T07:25:05;28.70;46.90
57660;DHT22;43485;45.680;15.702;2023-07-13T07:27:32;28.90;46.60
57660;DHT22;43485;45.680;15.702;2023-07-13T07:29:59;28.90;46.60
57660;DHT22;43485;45.680;15.702;2023-07-13T07:32:28;28.90;45.90
57660;DHT22;43485;45.680;15.702;2023-07-13T07:34:57;28.90;45.90
57660;DHT22;43485;45.680;15.702;2023-07-13T07:37:24;29.00;46.70
57660;DHT22;43485;45.680;15.702;2023-07-13T07:39:50;29.10;46.40
57660;DHT22;43485;45.680;15.702;2023-07-13T07:42:17;29.20;45.40
57660;DHT22;43485;45.680;15.702;2023-07-13T07:44:43;29.40;45.70
57660;DHT22;43485;45.680;15.702;2023-07-13T07:47:09;29.40;45.50
57660;DHT22;43485;45.680;15.702;2023-07-13T07:49:36;29.50;45.40
57660;DHT22;43485;45.680;15.702;2023-07-13T07:52:04;29.60;45.00
57660;DHT22;43485;45.680;15.702;2023-07-13T07:54:30;29.80;44.90
57660;DHT22;43485;45.680;15.702;2023-07-13T07:56:56;29.90;44.90
57660;DHT22;43485;45.680;15.702;2023-07-13T07:59:22;30.00;45.10
57660;DHT22;43485;45.680;15.702;2023-07-13T08:01:48;30.10;44.80
57660;DHT22;43485;45.680;15.702;2023-07-13T08:04:16;30.10;43.90
57660;DHT22;43485;45.680;15.702;2023-07-13T08:06:42;30.30;43.40
57660;DHT22;43485;45.680;15.702;2023-07-13T08:09:08;30.40;43.90
57660;DHT22;43485;45.680;15.702;2023-07-13T08:11:34;30.50;43.90
57660;DHT22;43485;45.680;15.702;2023-07-13T08:14:00;30.50;43.70
57660;DHT22;43485;45.680;15.702;2023-07-13T08:16:26;30.60;43.60
57660;DHT22;43485;45.680;15.702;2023-07-13T08:18:52;30.70;43.40
57660;DHT22;43485;45.680;15.702;2023-07-13T08:21:18;30.70;43.00
57660;DHT22;43485;45.680;15.702;2023-07-13T08:23:48;30.80;42.40
57660;DHT22;43485;45.680;15.702;2023-07-13T08:26:14;30.90;41.70
57660;DHT22;43485;45.680;15.702;2023-07-13T08:28:41;30.90;41.90
57660;DHT22;43485;45.680;15.702;2023-07-13T08:31:07;31.00;42.10
57660;DHT22;43485;45.680;15.702;2023-07-13T08:33:35;31.10;42.50
57660;DHT22;43485;45.680;15.702;2023-07-13T08:36:02;31.20;42.10
57660;DHT22;43485;45.680;15.702;2023-07-13T08:38:28;31.30;41.40
57660;DHT22;43485;45.680;15.702;2023-07-13T08:40:56;31.40;41.30
57660;DHT22;43485;45.680;15.702;2023-07-13T08:43:41;31.60;40.90
57660;DHT22;43485;45.680;15.702;2023-07-13T08:49:17;32.20;40.10
57660;DHT22;43485;45.680;15.702;2023-07-13T08:51:49;32.30;39.30
57660;DHT22;43485;45.680;15.702;2023-07-13T08:59:58;32.50;38.70
57660;DHT22;43485;45.680;15.702;2023-07-13T09:05:49;32.70;38.50
57660;DHT22;43485;45.680;15.702;2023-07-13T09:14:49;33.00;38.20
57660;DHT22;43485;45.680;15.702;2023-07-13T09:17:22;33.40;37.40
57660;DHT22;43485;45.680;15.702;2023-07-13T09:20:06;33.90;36.80
57660;DHT22;43485;45.680;15.702;2023-07-13T09:22:37;34.10;36.40
57660;DHT22;43485;45.680;15.702;2023-07-13T09:28:27;35.10;35.20
57660;DHT22;43485;45.680;15.702;2023-07-13T09:34:23;36.20;32.70
57660;DHT22;43485;45.680;15.702;2023-07-13T09:36:49;36.30;32.40
57660;DHT22;43485;45.680;15.702;2023-07-13T09:42:23;36.30;32.40
57660;DHT22;43485;45.680;15.702;2023-07-13T09:50:40;37.20;30.50
57660;DHT22;43485;45.680;15.702;2023-07-13T09:53:26;37.10;30.20
57660;DHT22;43485;45.680;15.702;2023-07-13T09:55:56;37.60;29.60
57660;DHT22;43485;45.680;15.702;2023-07-13T09:58:25;37.70;28.70
57660;DHT22;43485;45.680;15.702;2023-07-13T10:01:11;37.50;28.80
57660;DHT22;43485;45.680;15.702;2023-07-13T10:03:37;37.20;29.50
57660;DHT22;43485;45.680;15.702;2023-07-13T10:06:24;37.10;29.30
57660;DHT22;43485;45.680;15.702;2023-07-13T10:08:52;37.00;29.50
57660;DHT22;43485;45.680;15.702;2023-07-13T10:11:23;36.80;28.90
57660;DHT22;43485;45.680;15.702;2023-07-13T10:16:59;36.80;29.10
57660;DHT22;43485;45.680;15.702;2023-07-13T10:19:49;36.80;29.00
57660;DHT22;43485;45.680;15.702;2023-07-13T10:25:41;37.70;28.50
57660;DHT22;43485;45.680;15.702;2023-07-13T10:31:06;37.10;29.00
57660;DHT22;43485;45.680;15.702;2023-07-13T10:33:38;37.00;29.00
57660;DHT22;43485;45.680;15.702;2023-07-13T10:39:02;36.80;28.90
57660;DHT22;43485;45.680;15.702;2023-07-13T10:41:32;36.70;28.80
57660;DHT22;43485;45.680;15.702;2023-07-13T10:44:01;36.80;28.70
57660;DHT22;43485;45.680;15.702;2023-07-13T10:46:29;36.80;28.70
57660;DHT22;43485;45.680;15.702;2023-07-13T10:49:14;36.70;28.80
57660;DHT22;43485;45.680;15.702;2023-07-13T10:51:41;36.60;29.00
57660;DHT22;43485;45.680;15.702;2023-07-13T10:57:30;36.60;29.10
57660;DHT22;43485;45.680;15.702;2023-07-13T11:00:17;36.80;29.10
57660;DHT22;43485;45.680;15.702;2023-07-13T11:02:56;37.00;28.90
57660;DHT22;43485;45.680;15.702;2023-07-13T11:05:42;37.00;28.50
57660;DHT22;43485;45.680;15.702;2023-07-13T11:11:32;37.20;28.40
57660;DHT22;43485;45.680;15.702;2023-07-13T11:14:02;37.30;28.20
57660;DHT22;43485;45.680;15.702;2023-07-13T11:16:49;37.90;27.50
57660;DHT22;43485;45.680;15.702;2023-07-13T11:28:25;38.30;27.20
57660;DHT22;43485;45.680;15.702;2023-07-13T11:36:16;38.10;27.60
57660;DHT22;43485;45.680;15.702;2023-07-13T11:39:02;38.10;27.40
57660;DHT22;43485;45.680;15.702;2023-07-13T11:41:44;38.00;27.40
57660;DHT22;43485;45.680;15.702;2023-07-13T11:44:34;38.10;27.20
57660;DHT22;43485;45.680;15.702;2023-07-13T11:47:14;38.30;26.90
57660;DHT22;43485;45.680;15.702;2023-07-13T11:49:49;38.30;27.00
57660;DHT22;43485;45.680;15.702;2023-07-13T11:52:21;38.10;27.60
57660;DHT22;43485;45.680;15.702;2023-07-13T11:54:51;38.00;28.00
57660;DHT22;43485;45.680;15.702;2023-07-13T11:58:00;37.80;28.10
57660;DHT22;43485;45.680;15.702;2023-07-13T12:00:31;37.80;28.00
57660;DHT22;43485;45.680;15.702;2023-07-13T12:03:20;37.70;27.90
57660;DHT22;43485;45.680;15.702;2023-07-13T12:06:29;37.70;28.20
57660;DHT22;43485;45.680;15.702;2023-07-13T12:09:14;37.70;28.50
57660;DHT22;43485;45.680;15.702;2023-07-13T12:11:42;37.70;28.60
57660;DHT22;43485;45.680;15.702;2023-07-13T12:14:28;37.60;28.70
57660;DHT22;43485;45.680;15.702;2023-07-13T12:16:55;37.30;29.10
57660;DHT22;43485;45.680;15.702;2023-07-13T12:19:40;37.10;29.30
57660;DHT22;43485;45.680;15.702;2023-07-13T12:22:11;37.00;29.30
57660;DHT22;43485;45.680;15.702;2023-07-13T12:24:39;36.50;29.10
57660;DHT22;43485;45.680;15.702;2023-07-13T12:27:13;36.40;29.80
57660;DHT22;43485;45.680;15.702;2023-07-13T12:29:50;36.20;30.50
57660;DHT22;43485;45.680;15.702;2023-07-13T12:32:36;36.20;30.70
57660;DHT22;43485;45.680;15.702;2023-07-13T12:35:21;36.40;31.20
57660;DHT22;43485;45.680;15.702;2023-07-13T12:37:47;36.70;30.10
57660;DHT22;43485;45.680;15.702;2023-07-13T12:40:33;36.60;30.30
57660;DHT22;43485;45.680;15.702;2023-07-13T12:43:01;36.70;31.00
57660;DHT22;43485;45.680;15.702;2023-07-13T12:45:30;37.00;30.50
57660;DHT22;43485;45.680;15.702;2023-07-13T12:50:47;38.00;29.60
57660;DHT22;43485;45.680;15.702;2023-07-13T12:53:19;38.30;29.30
57660;DHT22;43485;45.680;15.702;2023-07-13T12:58:38;38.50;28.30
57660;DHT22;43485;45.680;15.702;2023-07-13T13:01:11;38.40;28.60
57660;DHT22;43485;45.680;15.702;2023-07-13T13:03:44;38.10;28.70
57660;DHT22;43485;45.680;15.702;2023-07-13T13:06:32;37.70;29.50
57660;DHT22;43485;45.680;15.702;2023-07-13T13:09:01;37.50;29.80
57660;DHT22;43485;45.680;15.702;2023-07-13T13:11:31;37.40;30.20
57660;DHT22;43485;45.680;15.702;2023-07-13T13:13:57;37.10;30.60
57660;DHT22;43485;45.680;15.702;2023-07-13T13:19:28;36.40;30.90
57660;DHT22;43485;45.680;15.702;2023-07-13T13:21:56;35.70;30.70
57660;DHT22;43485;45.680;15.702;2023-07-13T13:24:27;35.30;32.30
57660;DHT22;43485;45.680;15.702;2023-07-13T13:26:54;35.30;32.90
57660;DHT22;43485;45.680;15.702;2023-07-13T13:29:23;35.80;32.50
57660;DHT22;43485;45.680;15.702;2023-07-13T13:31:50;36.20;31.60
57660;DHT22;43485;45.680;15.702;2023-07-13T13:34:19;35.90;31.80
57660;DHT22;43485;45.680;15.702;2023-07-13T13:36:47;35.80;32.20
57660;DHT22;43485;45.680;15.702;2023-07-13T13:41:58;35.20;34.30
57660;DHT22;43485;45.680;15.702;2023-07-13T13:44:25;35.10;34.90
57660;DHT22;43485;45.680;15.702;2023-07-13T13:46:52;35.00;34.80
57660;DHT22;43485;45.680;15.702;2023-07-13T13:49:24;34.90;35.00
57660;DHT22;43485;45.680;15.702;2023-07-13T13:51:52;34.90;35.30
57660;DHT22;43485;45.680;15.702;2023-07-13T13:54:20;34.90;35.40
57660;DHT22;43485;45.680;15.702;2023-07-13T13:56:49;35.20;35.80
57660;DHT22;43485;45.680;15.702;2023-07-13T13:59:16;35.60;35.00
57660;DHT22;43485;45.680;15.702;2023-07-13T14:01:45;35.80;34.50
57660;DHT22;43485;45.680;15.702;2023-07-13T14:04:32;36.00;34.70
57660;DHT22;43485;45.680;15.702;2023-07-13T14:06:58;35.90;34.40
57660;DHT22;43485;45.680;15.702;2023-07-13T14:09:24;35.60;35.00
57660;DHT22;43485;45.680;15.702;2023-07-13T14:11:51;35.10;35.40
57660;DHT22;43485;45.680;15.702;2023-07-13T14:17:04;34.70;35.50
57660;DHT22;43485;45.680;15.702;2023-07-13T14:19:30;34.70;35.70
57660;DHT22;43485;45.680;15.702;2023-07-13T14:21:56;34.50;34.40
57660;DHT22;43485;45.680;15.702;2023-07-13T14:24:23;34.00;34.30
57660;DHT22;43485;45.680;15.702;2023-07-13T14:26:49;33.60;34.30
57660;DHT22;43485;45.680;15.702;2023-07-13T14:29:17;33.20;33.90
57660;DHT22;43485;45.680;15.702;2023-07-13T14:31:45;32.90;34.20
57660;DHT22;43485;45.680;15.702;2023-07-13T14:34:12;32.50;34.90
57660;DHT22;43485;45.680;15.702;2023-07-13T14:36:59;32.40;34.90
57660;DHT22;43485;45.680;15.702;2023-07-13T14:39:26;32.30;35.80
57660;DHT22;43485;45.680;15.702;2023-07-13T14:41:54;32.30;35.70
57660;DHT22;43485;45.680;15.702;2023-07-13T14:44:23;32.10;35.90
57660;DHT22;43485;45.680;15.702;2023-07-13T14:46:52;32.00;36.40
57660;DHT22;43485;45.680;15.702;2023-07-13T14:52:23;31.70;37.00
57660;DHT22;43485;45.680;15.702;2023-07-13T14:54:50;31.60;37.10
57660;DHT22;43485;45.680;15.702;2023-07-13T14:57:18;31.50;36.80
57660;DHT22;43485;45.680;15.702;2023-07-13T14:59:45;31.40;37.10
57660;DHT22;43485;45.680;15.702;2023-07-13T15:02:32;31.40;37.20
57660;DHT22;43485;45.680;15.702;2023-07-13T15:05:00;31.50;37.00
57660;DHT22;43485;45.680;15.702;2023-07-13T15:07:26;31.50;37.20
57660;DHT22;43485;45.680;15.702;2023-07-13T15:09:53;31.30;37.70
57660;DHT22;43485;45.680;15.702;2023-07-13T15:12:19;31.20;38.30
57660;DHT22;43485;45.680;15.702;2023-07-13T15:14:45;31.10;38.30
57660;DHT22;43485;45.680;15.702;2023-07-13T15:20:34;30.90;38.60
57660;DHT22;43485;45.680;15.702;2023-07-13T15:23:03;30.80;39.20
57660;DHT22;43485;45.680;15.702;2023-07-13T15:25:31;30.80;39.60
57660;DHT22;43485;45.680;15.702;2023-07-13T15:28:01;30.70;40.10
57660;DHT22;43485;45.680;15.702;2023-07-13T15:30:30;30.70;39.80
57660;DHT22;43485;45.680;15.702;2023-07-13T15:33:01;30.80;39.80
57660;DHT22;43485;45.680;15.702;2023-07-13T15:35:36;31.00;40.20
57660;DHT22;43485;45.680;15.702;2023-07-13T15:40:56;31.10;39.60
57660;DHT22;43485;45.680;15.702;2023-07-13T15:43:22;31.10;39.90
57660;DHT22;43485;45.680;15.702;2023-07-13T15:45:49;30.90;39.20
57660;DHT22;43485;45.680;15.702;2023-07-13T15:48:35;30.80;39.80
57660;DHT22;43485;45.680;15.702;2023-07-13T15:51:02;30.80;40.20
57660;DHT22;43485;45.680;15.702;2023-07-13T15:56:20;30.20;41.30
57660;DHT22;43485;45.680;15.702;2023-07-13T15:58:48;30.00;42.10
57660;DHT22;43485;45.680;15.702;2023-07-13T16:01:15;29.80;42.20
57660;DHT22;43485;45.680;15.702;2023-07-13T16:03:42;29.70;42.10
57660;DHT22;43485;45.680;15.702;2023-07-13T16:12:02;29.20;43.40
57660;DHT22;43485;45.680;15.702;2023-07-13T16:14:30;29.00;43.70
57660;DHT22;43485;45.680;15.702;2023-07-13T16:16:56;29.00;44.80
57660;DHT22;43485;45.680;15.702;2023-07-13T16:19:22;28.80;44.70
57660;DHT22;43485;45.680;15.702;2023-07-13T16:21:54;28.80;44.90
57660;DHT22;43485;45.680;15.702;2023-07-13T16:24:22;28.70;44.90
57660;DHT22;43485;45.680;15.702;2023-07-13T16:26:51;28.50;45.10
57660;DHT22;43485;45.680;15.702;2023-07-13T16:29:36;28.50;45.20
57660;DHT22;43485;45.680;15.702;2023-07-13T16:32:11;28.40;45.40
57660;DHT22;43485;45.680;15.702;2023-07-13T16:34:40;28.40;45.50
57660;DHT22;43485;45.680;15.702;2023-07-13T16:37:27;28.30;45.60
57660;DHT22;43485;45.680;15.702;2023-07-13T16:39:57;28.30;45.60
57660;DHT22;43485;45.680;15.702;2023-07-13T16:42:26;28.20;46.10
57660;DHT22;43485;45.680;15.702;2023-07-13T16:44:53;28.20;46.60
57660;DHT22;43485;45.680;15.702;2023-07-13T16:47:21;28.10;46.80
57660;DHT22;43485;45.680;15.702;2023-07-13T16:49:48;28.00;46.90
57660;DHT22;43485;45.680;15.702;2023-07-13T16:52:17;28.00;47.10
57660;DHT22;43485;45.680;15.702;2023-07-13T16:54:46;28.00;47.10
57660;DHT22;43485;45.680;15.702;2023-07-13T16:57:15;28.00;46.90
57660;DHT22;43485;45.680;15.702;2023-07-13T16:59:44;27.90;46.50
57660;DHT22;43485;45.680;15.702;2023-07-13T17:02:31;27.90;46.00
57660;DHT22;43485;45.680;15.702;2023-07-13T17:05:18;27.90;46.50
57660;DHT22;43485;45.680;15.702;2023-07-13T17:07:44;27.80;46.90
57660;DHT22;43485;45.680;15.702;2023-07-13T17:10:20;27.70;47.20
57660;DHT22;43485;45.680;15.702;2023-07-13T17:15:36;27.60;47.50
57660;DHT22;43485;45.680;15.702;2023-07-13T17:18:04;27.50;48.20
57660;DHT22;43485;45.680;15.702;2023-07-13T17:20:53;27.30;49.10